sensor_id;sensor_type;location;lat;lon;timestamp;P1;durP1;ratioP1;P2;durP2;ratioP2
11287;SDS011;5700;50.996;7.044;2023-03-07T00:01:08;20.25;;;8.15;;
11287;SDS011;5700;50.996;7.044;2023-03-07T00:04:09;19.23;;;7.85;;
11287;SDS011;5700;50.996;7.044;2023-03-07T00:07:12;17.70;;;8.30;;
11287;SDS011;5700;50.996;7.044;2023-03-07T00:10:14;16.42;;;7.25;;
11287;SDS011;5700;50.996;7.044;2023-03-07T00:13:15;14.85;;;6.68;;
11287;SDS011;5700;50.996;7.044;2023-03-07T00:16:17;18.50;;;7.28;;
11287;SDS011;5700;50.996;7.044;2023-03-07T00:19:20;11.80;;;5.18;;
11287;SDS011;5700;50.996;7.044;2023-03-07T00:22:23;9.23;;;4.78;;
11287;SDS011;5700;50.996;7.044;2023-03-07T00:25:24;7.90;;;3.40;;
11287;SDS011;5700;50.996;7.044;2023-03-07T00:28:26;8.95;;;3.63;;
11287;SDS011;5700;50.996;7.044;2023-03-07T00:31:27;7.63;;;3.47;;
11287;SDS011;5700;50.996;7.044;2023-03-07T00:34:29;6.75;;;3.20;;
11287;SDS011;5700;50.996;7.044;2023-03-07T00:37:31;7.20;;;3.33;;
11287;SDS011;5700;50.996;7.044;2023-03-07T00:40:33;6.30;;;2.63;;
11287;SDS011;5700;50.996;7.044;2023-03-07T00:43:34;6.25;;;3.08;;
11287;SDS011;5700;50.996;7.044;2023-03-07T00:46:36;8.48;;;3.65;;
11287;SDS011;5700;50.996;7.044;2023-03-07T00:49:37;6.32;;;3.30;;
11287;SDS011;5700;50.996;7.044;2023-03-07T00:52:40;5.40;;;2.67;;
11287;SDS011;5700;50.996;7.044;2023-03-07T00:55:41;5.47;;;2.78;;
11287;SDS011;5700;50.996;7.044;2023-03-07T00:58:43;5.72;;;3.08;;
11287;SDS011;5700;50.996;7.044;2023-03-07T01:01:45;5.18;;;2.50;;
11287;SDS011;5700;50.996;7.044;2023-03-07T01:04:47;4.95;;;2.40;;
11287;SDS011;5700;50.996;7.044;2023-03-07T01:07:49;4.95;;;2.65;;
11287;SDS011;5700;50.996;7.044;2023-03-07T01:10:51;4.32;;;2.42;;
11287;SDS011;5700;50.996;7.044;2023-03-07T01:13:53;6.32;;;2.72;;
11287;SDS011;5700;50.996;7.044;2023-03-07T01:16:55;7.18;;;2.88;;
11287;SDS011;5700;50.996;7.044;2023-03-07T01:19:56;5.53;;;2.42;;
11287;SDS011;5700;50.996;7.044;2023-03-07T01:22:59;5.10;;;2.67;;
11287;SDS011;5700;50.996;7.044;2023-03-07T01:26:01;4.50;;;2.50;;
11287;SDS011;5700;50.996;7.044;2023-03-07T01:29:03;6.55;;;2.95;;
11287;SDS011;5700;50.996;7.044;2023-03-07T01:32:05;6.05;;;3.35;;
11287;SDS011;5700;50.996;7.044;2023-03-07T01:35:07;7.28;;;3.17;;
11287;SDS011;5700;50.996;7.044;2023-03-07T01:38:10;5.18;;;2.63;;
11287;SDS011;5700;50.996;7.044;2023-03-07T01:41:11;6.65;;;3.15;;
11287;SDS011;5700;50.996;7.044;2023-03-07T01:44:14;5.90;;;2.70;;
11287;SDS011;5700;50.996;7.044;2023-03-07T01:47:16;4.30;;;2.47;;
11287;SDS011;5700;50.996;7.044;2023-03-07T01:50:18;5.55;;;2.35;;
11287;SDS011;5700;50.996;7.044;2023-03-07T01:53:21;5.15;;;2.90;;
11287;SDS011;5700;50.996;7.044;2023-03-07T01:56:22;5.57;;;2.58;;
11287;SDS011;5700;50.996;7.044;2023-03-07T01:59:26;7.32;;;2.75;;
11287;SDS011;5700;50.996;7.044;2023-03-07T02:02:29;5.68;;;2.72;;
11287;SDS011;5700;50.996;7.044;2023-03-07T02:05:31;6.60;;;3.00;;
11287;SDS011;5700;50.996;7.044;2023-03-07T02:08:38;5.10;;;2.45;;
11287;SDS011;5700;50.996;7.044;2023-03-07T02:11:40;5.22;;;2.58;;
11287;SDS011;5700;50.996;7.044;2023-03-07T02:14:43;4.05;;;2.70;;
11287;SDS011;5700;50.996;7.044;2023-03-07T02:17:45;6.20;;;3.15;;
11287;SDS011;5700;50.996;7.044;2023-03-07T02:20:49;5.68;;;3.10;;
11287;SDS011;5700;50.996;7.044;2023-03-07T02:23:57;3.65;;;2.10;;
11287;SDS011;5700;50.996;7.044;2023-03-07T02:27:03;4.57;;;2.75;;
11287;SDS011;5700;50.996;7.044;2023-03-07T02:30:06;5.00;;;2.47;;
11287;SDS011;5700;50.996;7.044;2023-03-07T02:33:08;5.18;;;2.60;;
11287;SDS011;5700;50.996;7.044;2023-03-07T02:36:10;7.05;;;2.75;;
11287;SDS011;5700;50.996;7.044;2023-03-07T02:39:13;5.38;;;3.10;;
11287;SDS011;5700;50.996;7.044;2023-03-07T02:42:17;5.72;;;3.05;;
11287;SDS011;5700;50.996;7.044;2023-03-07T02:45:21;6.57;;;3.20;;
11287;SDS011;5700;50.996;7.044;2023-03-07T02:48:22;4.82;;;2.72;;
11287;SDS011;5700;50.996;7.044;2023-03-07T02:51:24;6.40;;;2.85;;
11287;SDS011;5700;50.996;7.044;2023-03-07T02:54:25;5.18;;;2.92;;
11287;SDS011;5700;50.996;7.044;2023-03-07T02:57:28;7.65;;;3.45;;
11287;SDS011;5700;50.996;7.044;2023-03-07T03:00:29;5.78;;;3.00;;
11287;SDS011;5700;50.996;7.044;2023-03-07T03:03:31;7.00;;;3.88;;
11287;SDS011;5700;50.996;7.044;2023-03-07T03:06:32;7.07;;;3.47;;
11287;SDS011;5700;50.996;7.044;2023-03-07T03:09:34;6.20;;;3.67;;
11287;SDS011;5700;50.996;7.044;2023-03-07T03:12:36;7.68;;;3.22;;
11287;SDS011;5700;50.996;7.044;2023-03-07T03:15:38;6.05;;;3.13;;
11287;SDS011;5700;50.996;7.044;2023-03-07T03:18:39;5.13;;;3.05;;
11287;SDS011;5700;50.996;7.044;2023-03-07T03:21:41;5.80;;;3.45;;
11287;SDS011;5700;50.996;7.044;2023-03-07T03:24:42;6.30;;;3.00;;
11287;SDS011;5700;50.996;7.044;2023-03-07T03:27:45;6.00;;;2.90;;
11287;SDS011;5700;50.996;7.044;2023-03-07T03:30:55;5.90;;;3.42;;
11287;SDS011;5700;50.996;7.044;2023-03-07T03:33:57;5.70;;;2.97;;
11287;SDS011;5700;50.996;7.044;2023-03-07T03:36:59;6.65;;;3.55;;
11287;SDS011;5700;50.996;7.044;2023-03-07T03:40:00;5.60;;;3.10;;
11287;SDS011;5700;50.996;7.044;2023-03-07T03:43:06;6.05;;;2.88;;
11287;SDS011;5700;50.996;7.044;2023-03-07T03:46:08;4.85;;;2.47;;
11287;SDS011;5700;50.996;7.044;2023-03-07T03:49:10;5.97;;;2.65;;
11287;SDS011;5700;50.996;7.044;2023-03-07T03:52:12;6.18;;;2.97;;
11287;SDS011;5700;50.996;7.044;2023-03-07T03:55:13;6.15;;;3.15;;
11287;SDS011;5700;50.996;7.044;2023-03-07T03:58:16;7.07;;;3.47;;
11287;SDS011;5700;50.996;7.044;2023-03-07T04:01:17;6.40;;;3.28;;
11287;SDS011;5700;50.996;7.044;2023-03-07T04:04:20;4.40;;;2.80;;
11287;SDS011;5700;50.996;7.044;2023-03-07T04:07:21;6.53;;;3.42;;
11287;SDS011;5700;50.996;7.044;2023-03-07T04:10:24;6.38;;;3.67;;
11287;SDS011;5700;50.996;7.044;2023-03-07T04:13:26;7.72;;;3.60;;
11287;SDS011;5700;50.996;7.044;2023-03-07T04:16:28;7.00;;;3.22;;
11287;SDS011;5700;50.996;7.044;2023-03-07T04:19:29;7.32;;;3.25;;
11287;SDS011;5700;50.996;7.044;2023-03-07T04:22:31;7.40;;;3.17;;
11287;SDS011;5700;50.996;7.044;2023-03-07T04:25:32;7.80;;;4.03;;
11287;SDS011;5700;50.996;7.044;2023-03-07T04:28:35;8.05;;;3.60;;
11287;SDS011;5700;50.996;7.044;2023-03-07T04:31:45;6.97;;;3.53;;
11287;SDS011;5700;50.996;7.044;2023-03-07T04:34:46;6.95;;;3.72;;
11287;SDS011;5700;50.996;7.044;2023-03-07T04:37:47;7.70;;;3.83;;
11287;SDS011;5700;50.996;7.044;2023-03-07T04:40:50;7.07;;;2.97;;
11287;SDS011;5700;50.996;7.044;2023-03-07T04:43:52;6.90;;;3.25;;
11287;SDS011;5700;50.996;7.044;2023-03-07T04:46:54;8.18;;;4.53;;
11287;SDS011;5700;50.996;7.044;2023-03-07T04:49:55;8.07;;;3.40;;
11287;SDS011;5700;50.996;7.044;2023-03-07T04:52:57;8.77;;;3.95;;
11287;SDS011;5700;50.996;7.044;2023-03-07T04:55:58;9.85;;;4.45;;
11287;SDS011;5700;50.996;7.044;2023-03-07T04:59:01;8.57;;;3.80;;
11287;SDS011;5700;50.996;7.044;2023-03-07T05:02:03;7.28;;;3.40;;
11287;SDS011;5700;50.996;7.044;2023-03-07T05:05:05;6.85;;;3.20;;
11287;SDS011;5700;50.996;7.044;2023-03-07T05:08:07;8.07;;;3.97;;
11287;SDS011;5700;50.996;7.044;2023-03-07T05:11:08;8.32;;;3.50;;
11287;SDS011;5700;50.996;7.044;2023-03-07T05:14:11;8.07;;;4.07;;
11287;SDS011;5700;50.996;7.044;2023-03-07T05:17:13;9.40;;;4.25;;
11287;SDS011;5700;50.996;7.044;2023-03-07T05:20:14;8.40;;;4.10;;
11287;SDS011;5700;50.996;7.044;2023-03-07T05:23:16;12.95;;;4.63;;
11287;SDS011;5700;50.996;7.044;2023-03-07T05:26:18;6.68;;;3.38;;
11287;SDS011;5700;50.996;7.044;2023-03-07T05:29:21;8.32;;;4.32;;
11287;SDS011;5700;50.996;7.044;2023-03-07T05:32:22;9.40;;;4.38;;
11287;SDS011;5700;50.996;7.044;2023-03-07T05:35:24;8.93;;;4.07;;
11287;SDS011;5700;50.996;7.044;2023-03-07T05:38:26;9.73;;;4.88;;
11287;SDS011;5700;50.996;7.044;2023-03-07T05:41:27;8.48;;;4.20;;
11287;SDS011;5700;50.996;7.044;2023-03-07T05:44:30;8.95;;;4.55;;
11287;SDS011;5700;50.996;7.044;2023-03-07T05:47:31;9.27;;;4.88;;
11287;SDS011;5700;50.996;7.044;2023-03-07T05:50:33;9.68;;;4.63;;
11287;SDS011;5700;50.996;7.044;2023-03-07T05:53:34;10.13;;;4.88;;
11287;SDS011;5700;50.996;7.044;2023-03-07T05:56:36;12.38;;;5.30;;
11287;SDS011;5700;50.996;7.044;2023-03-07T05:59:38;9.13;;;4.63;;
11287;SDS011;5700;50.996;7.044;2023-03-07T06:02:40;10.75;;;5.13;;
11287;SDS011;5700;50.996;7.044;2023-03-07T06:05:41;9.60;;;5.20;;
11287;SDS011;5700;50.996;7.044;2023-03-07T06:08:43;9.65;;;4.70;;
11287;SDS011;5700;50.996;7.044;2023-03-07T06:11:44;10.00;;;5.10;;
11287;SDS011;5700;50.996;7.044;2023-03-07T06:14:47;10.68;;;5.18;;
11287;SDS011;5700;50.996;7.044;2023-03-07T06:17:48;11.50;;;4.97;;
11287;SDS011;5700;50.996;7.044;2023-03-07T06:20:53;15.85;;;6.30;;
11287;SDS011;5700;50.996;7.044;2023-03-07T06:23:55;7.72;;;4.18;;
11287;SDS011;5700;50.996;7.044;2023-03-07T06:26:57;7.57;;;3.67;;
11287;SDS011;5700;50.996;7.044;2023-03-07T06:30:01;8.77;;;4.50;;
11287;SDS011;5700;50.996;7.044;2023-03-07T06:33:04;10.98;;;4.95;;
11287;SDS011;5700;50.996;7.044;2023-03-07T06:36:07;10.77;;;5.10;;
11287;SDS011;5700;50.996;7.044;2023-03-07T06:39:11;11.10;;;4.65;;
11287;SDS011;5700;50.996;7.044;2023-03-07T06:42:15;9.30;;;5.13;;
11287;SDS011;5700;50.996;7.044;2023-03-07T06:45:18;9.48;;;4.40;;
11287;SDS011;5700;50.996;7.044;2023-03-07T06:48:19;8.48;;;4.57;;
11287;SDS011;5700;50.996;7.044;2023-03-07T06:51:21;14.63;;;5.07;;
11287;SDS011;5700;50.996;7.044;2023-03-07T06:54:22;13.63;;;5.07;;
11287;SDS011;5700;50.996;7.044;2023-03-07T06:57:23;9.98;;;4.45;;
11287;SDS011;5700;50.996;7.044;2023-03-07T07:00:26;11.10;;;4.93;;
11287;SDS011;5700;50.996;7.044;2023-03-07T07:03:28;9.65;;;5.00;;
11287;SDS011;5700;50.996;7.044;2023-03-07T07:06:29;9.82;;;4.85;;
11287;SDS011;5700;50.996;7.044;2023-03-07T07:09:31;9.90;;;4.88;;
11287;SDS011;5700;50.996;7.044;2023-03-07T07:12:32;10.65;;;4.70;;
11287;SDS011;5700;50.996;7.044;2023-03-07T07:15:35;13.15;;;5.53;;
11287;SDS011;5700;50.996;7.044;2023-03-07T07:18:36;8.80;;;4.43;;
11287;SDS011;5700;50.996;7.044;2023-03-07T07:21:38;11.15;;;5.57;;
11287;SDS011;5700;50.996;7.044;2023-03-07T07:24:39;11.25;;;5.18;;
11287;SDS011;5700;50.996;7.044;2023-03-07T07:27:41;10.63;;;4.68;;
11287;SDS011;5700;50.996;7.044;2023-03-07T07:30:44;10.43;;;5.45;;
11287;SDS011;5700;50.996;7.044;2023-03-07T07:33:45;12.90;;;5.93;;
11287;SDS011;5700;50.996;7.044;2023-03-07T07:36:46;12.07;;;5.47;;
11287;SDS011;5700;50.996;7.044;2023-03-07T07:39:48;12.68;;;6.00;;
11287;SDS011;5700;50.996;7.044;2023-03-07T07:42:49;13.50;;;5.63;;
11287;SDS011;5700;50.996;7.044;2023-03-07T07:45:54;13.95;;;6.35;;
11287;SDS011;5700;50.996;7.044;2023-03-07T07:48:56;10.70;;;5.47;;
11287;SDS011;5700;50.996;7.044;2023-03-07T07:51:57;16.45;;;6.97;;
11287;SDS011;5700;50.996;7.044;2023-03-07T07:54:59;15.20;;;6.30;;
11287;SDS011;5700;50.996;7.044;2023-03-07T07:58:00;14.00;;;6.00;;
11287;SDS011;5700;50.996;7.044;2023-03-07T08:01:11;10.57;;;5.57;;
11287;SDS011;5700;50.996;7.044;2023-03-07T08:04:14;10.35;;;5.50;;
11287;SDS011;5700;50.996;7.044;2023-03-07T08:07:15;11.48;;;5.00;;
11287;SDS011;5700;50.996;7.044;2023-03-07T08:10:16;12.35;;;5.50;;
11287;SDS011;5700;50.996;7.044;2023-03-07T08:13:18;10.00;;;4.97;;
11287;SDS011;5700;50.996;7.044;2023-03-07T08:16:21;8.93;;;4.55;;
11287;SDS011;5700;50.996;7.044;2023-03-07T08:19:23;13.43;;;4.78;;
11287;SDS011;5700;50.996;7.044;2023-03-07T08:22:24;10.90;;;4.95;;
11287;SDS011;5700;50.996;7.044;2023-03-07T08:25:25;10.27;;;5.38;;
11287;SDS011;5700;50.996;7.044;2023-03-07T08:28:27;10.55;;;4.90;;
11287;SDS011;5700;50.996;7.044;2023-03-07T08:31:29;10.45;;;5.45;;
11287;SDS011;5700;50.996;7.044;2023-03-07T08:34:31;9.60;;;5.07;;
11287;SDS011;5700;50.996;7.044;2023-03-07T08:37:32;9.02;;;4.78;;
11287;SDS011;5700;50.996;7.044;2023-03-07T08:40:34;9.50;;;4.93;;
11287;SDS011;5700;50.996;7.044;2023-03-07T08:43:35;9.73;;;4.47;;
11287;SDS011;5700;50.996;7.044;2023-03-07T08:46:39;9.73;;;4.70;;
11287;SDS011;5700;50.996;7.044;2023-03-07T08:49:40;9.63;;;4.68;;
11287;SDS011;5700;50.996;7.044;2023-03-07T08:52:42;7.88;;;4.28;;
11287;SDS011;5700;50.996;7.044;2023-03-07T08:55:43;7.88;;;4.18;;
11287;SDS011;5700;50.996;7.044;2023-03-07T08:58:45;9.65;;;4.40;;
11287;SDS011;5700;50.996;7.044;2023-03-07T09:01:48;8.02;;;3.47;;
11287;SDS011;5700;50.996;7.044;2023-03-07T09:04:49;7.57;;;3.63;;
11287;SDS011;5700;50.996;7.044;2023-03-07T09:07:50;6.63;;;3.35;;
11287;SDS011;5700;50.996;7.044;2023-03-07T09:10:52;8.57;;;3.80;;
11287;SDS011;5700;50.996;7.044;2023-03-07T09:13:53;6.47;;;3.55;;
11287;SDS011;5700;50.996;7.044;2023-03-07T09:16:56;5.78;;;3.25;;
11287;SDS011;5700;50.996;7.044;2023-03-07T09:19:57;6.53;;;3.40;;
11287;SDS011;5700;50.996;7.044;2023-03-07T09:22:59;7.03;;;3.30;;
11287;SDS011;5700;50.996;7.044;2023-03-07T09:26:00;5.97;;;3.13;;
11287;SDS011;5700;50.996;7.044;2023-03-07T09:29:02;8.60;;;3.08;;
11287;SDS011;5700;50.996;7.044;2023-03-07T09:32:05;9.23;;;3.15;;
11287;SDS011;5700;50.996;7.044;2023-03-07T09:35:07;9.05;;;4.13;;
11287;SDS011;5700;50.996;7.044;2023-03-07T09:38:09;8.13;;;3.45;;
11287;SDS011;5700;50.996;7.044;2023-03-07T09:41:20;6.97;;;3.42;;
11287;SDS011;5700;50.996;7.044;2023-03-07T09:44:32;7.00;;;3.90;;
11287;SDS011;5700;50.996;7.044;2023-03-07T09:47:49;7.90;;;3.95;;
11287;SDS011;5700;50.996;7.044;2023-03-07T09:51:06;8.00;;;4.15;;
11287;SDS011;5700;50.996;7.044;2023-03-07T09:54:13;6.80;;;3.55;;
11287;SDS011;5700;50.996;7.044;2023-03-07T09:57:17;8.13;;;4.15;;
11287;SDS011;5700;50.996;7.044;2023-03-07T10:00:22;7.75;;;4.50;;
11287;SDS011;5700;50.996;7.044;2023-03-07T10:03:30;9.02;;;4.32;;
11287;SDS011;5700;50.996;7.044;2023-03-07T10:06:34;8.23;;;3.90;;
11287;SDS011;5700;50.996;7.044;2023-03-07T10:09:38;7.93;;;4.10;;
11287;SDS011;5700;50.996;7.044;2023-03-07T10:12:45;8.85;;;4.60;;
11287;SDS011;5700;50.996;7.044;2023-03-07T10:15:51;10.25;;;4.10;;
11287;SDS011;5700;50.996;7.044;2023-03-07T10:18:58;8.23;;;4.35;;
11287;SDS011;5700;50.996;7.044;2023-03-07T10:22:08;8.52;;;4.00;;
11287;SDS011;5700;50.996;7.044;2023-03-07T10:25:16;8.65;;;4.05;;
11287;SDS011;5700;50.996;7.044;2023-03-07T10:28:21;8.60;;;3.85;;
11287;SDS011;5700;50.996;7.044;2023-03-07T10:31:26;7.25;;;3.38;;
11287;SDS011;5700;50.996;7.044;2023-03-07T10:34:31;6.93;;;4.15;;
11287;SDS011;5700;50.996;7.044;2023-03-07T10:37:36;6.10;;;3.13;;
11287;SDS011;5700;50.996;7.044;2023-03-07T10:40:44;5.72;;;3.25;;
11287;SDS011;5700;50.996;7.044;2023-03-07T10:43:49;6.32;;;3.17;;
11287;SDS011;5700;50.996;7.044;2023-03-07T10:46:53;8.95;;;3.10;;
11287;SDS011;5700;50.996;7.044;2023-03-07T10:49:59;4.70;;;2.97;;
11287;SDS011;5700;50.996;7.044;2023-03-07T10:53:08;6.38;;;3.10;;
11287;SDS011;5700;50.996;7.044;2023-03-07T10:56:14;4.82;;;2.75;;
11287;SDS011;5700;50.996;7.044;2023-03-07T10:59:16;6.43;;;2.60;;
11287;SDS011;5700;50.996;7.044;2023-03-07T11:02:28;5.65;;;3.33;;
11287;SDS011;5700;50.996;7.044;2023-03-07T11:05:33;6.30;;;2.97;;
11287;SDS011;5700;50.996;7.044;2023-03-07T11:08:35;4.88;;;2.72;;
11287;SDS011;5700;50.996;7.044;2023-03-07T11:11:36;6.30;;;3.35;;
11287;SDS011;5700;50.996;7.044;2023-03-07T11:14:44;6.80;;;3.22;;
11287;SDS011;5700;50.996;7.044;2023-03-07T11:17:47;6.90;;;3.15;;
11287;SDS011;5700;50.996;7.044;2023-03-07T11:20:50;6.30;;;3.30;;
11287;SDS011;5700;50.996;7.044;2023-03-07T11:23:56;6.68;;;3.40;;
11287;SDS011;5700;50.996;7.044;2023-03-07T11:26:59;6.07;;;3.58;;
11287;SDS011;5700;50.996;7.044;2023-03-07T11:30:06;6.10;;;3.15;;
11287;SDS011;5700;50.996;7.044;2023-03-07T11:33:17;8.93;;;4.35;;
11287;SDS011;5700;50.996;7.044;2023-03-07T11:36:24;9.13;;;3.90;;
11287;SDS011;5700;50.996;7.044;2023-03-07T11:39:30;6.90;;;3.80;;
11287;SDS011;5700;50.996;7.044;2023-03-07T11:42:35;11.07;;;4.20;;
11287;SDS011;5700;50.996;7.044;2023-03-07T11:45:40;8.93;;;4.20;;
11287;SDS011;5700;50.996;7.044;2023-03-07T11:48:50;7.07;;;3.63;;
11287;SDS011;5700;50.996;7.044;2023-03-07T11:51:59;9.52;;;3.90;;
11287;SDS011;5700;50.996;7.044;2023-03-07T11:55:11;8.07;;;4.43;;
11287;SDS011;5700;50.996;7.044;2023-03-07T11:58:23;7.07;;;3.60;;
11287;SDS011;5700;50.996;7.044;2023-03-07T12:01:34;7.15;;;3.15;;
11287;SDS011;5700;50.996;7.044;2023-03-07T12:04:43;6.53;;;3.80;;
11287;SDS011;5700;50.996;7.044;2023-03-07T12:08:03;7.18;;;3.58;;
11287;SDS011;5700;50.996;7.044;2023-03-07T12:11:16;6.45;;;3.17;;
11287;SDS011;5700;50.996;7.044;2023-03-07T12:14:26;5.85;;;3.20;;
11287;SDS011;5700;50.996;7.044;2023-03-07T12:17:36;8.48;;;3.88;;
11287;SDS011;5700;50.996;7.044;2023-03-07T12:20:44;6.07;;;2.78;;
11287;SDS011;5700;50.996;7.044;2023-03-07T12:23:50;6.97;;;2.97;;
11287;SDS011;5700;50.996;7.044;2023-03-07T12:26:56;6.60;;;3.45;;
11287;SDS011;5700;50.996;7.044;2023-03-07T12:30:00;7.10;;;3.58;;
11287;SDS011;5700;50.996;7.044;2023-03-07T12:33:03;6.88;;;3.50;;
11287;SDS011;5700;50.996;7.044;2023-03-07T12:36:06;6.65;;;3.80;;
11287;SDS011;5700;50.996;7.044;2023-03-07T12:39:14;6.60;;;3.40;;
11287;SDS011;5700;50.996;7.044;2023-03-07T12:42:22;7.82;;;3.25;;
11287;SDS011;5700;50.996;7.044;2023-03-07T12:45:32;5.95;;;3.13;;
11287;SDS011;5700;50.996;7.044;2023-03-07T12:48:37;4.97;;;3.20;;
11287;SDS011;5700;50.996;7.044;2023-03-07T12:51:44;6.32;;;3.20;;
11287;SDS011;5700;50.996;7.044;2023-03-07T12:54:50;6.63;;;3.72;;
11287;SDS011;5700;50.996;7.044;2023-03-07T12:57:58;5.97;;;3.03;;
11287;SDS011;5700;50.996;7.044;2023-03-07T13:01:05;5.40;;;3.70;;
11287;SDS011;5700;50.996;7.044;2023-03-07T13:04:12;7.35;;;4.22;;
11287;SDS011;5700;50.996;7.044;2023-03-07T13:07:16;6.38;;;3.85;;
11287;SDS011;5700;50.996;7.044;2023-03-07T13:10:22;8.00;;;4.20;;
11287;SDS011;5700;50.996;7.044;2023-03-07T13:16:48;6.47;;;3.97;;
11287;SDS011;5700;50.996;7.044;2023-03-07T13:19:54;9.48;;;5.32;;
11287;SDS011;5700;50.996;7.044;2023-03-07T13:22:56;8.30;;;4.68;;
11287;SDS011;5700;50.996;7.044;2023-03-07T13:26:02;6.82;;;3.85;;
11287;SDS011;5700;50.996;7.044;2023-03-07T13:29:06;8.77;;;4.38;;
11287;SDS011;5700;50.996;7.044;2023-03-07T13:32:41;9.90;;;4.65;;
11287;SDS011;5700;50.996;7.044;2023-03-07T13:35:56;7.40;;;3.88;;
11287;SDS011;5700;50.996;7.044;2023-03-07T13:38:58;5.90;;;2.50;;
11287;SDS011;5700;50.996;7.044;2023-03-07T13:41:59;4.38;;;2.45;;
11287;SDS011;5700;50.996;7.044;2023-03-07T13:45:01;3.58;;;1.80;;
11287;SDS011;5700;50.996;7.044;2023-03-07T13:48:03;3.33;;;2.03;;
11287;SDS011;5700;50.996;7.044;2023-03-07T13:51:06;5.78;;;2.92;;
11287;SDS011;5700;50.996;7.044;2023-03-07T13:54:09;4.35;;;2.28;;
11287;SDS011;5700;50.996;7.044;2023-03-07T13:57:13;5.57;;;2.75;;
11287;SDS011;5700;50.996;7.044;2023-03-07T14:00:24;5.05;;;2.92;;
11287;SDS011;5700;50.996;7.044;2023-03-07T14:03:35;4.47;;;2.58;;
11287;SDS011;5700;50.996;7.044;2023-03-07T14:06:38;6.03;;;3.08;;
11287;SDS011;5700;50.996;7.044;2023-03-07T14:09:42;6.50;;;3.35;;
11287;SDS011;5700;50.996;7.044;2023-03-07T14:12:53;7.82;;;4.35;;
11287;SDS011;5700;50.996;7.044;2023-03-07T14:16:07;7.53;;;4.60;;
11287;SDS011;5700;50.996;7.044;2023-03-07T14:19:20;8.48;;;4.45;;
11287;SDS011;5700;50.996;7.044;2023-03-07T14:22:32;9.68;;;4.63;;
11287;SDS011;5700;50.996;7.044;2023-03-07T14:25:38;6.55;;;3.83;;
11287;SDS011;5700;50.996;7.044;2023-03-07T14:28:46;6.82;;;3.42;;
11287;SDS011;5700;50.996;7.044;2023-03-07T14:31:48;5.90;;;3.30;;
11287;SDS011;5700;50.996;7.044;2023-03-07T14:34:53;5.82;;;3.60;;
11287;SDS011;5700;50.996;7.044;2023-03-07T14:37:55;4.80;;;2.78;;
11287;SDS011;5700;50.996;7.044;2023-03-07T14:41:15;6.95;;;3.88;;
11287;SDS011;5700;50.996;7.044;2023-03-07T14:44:30;5.95;;;3.30;;
11287;SDS011;5700;50.996;7.044;2023-03-07T14:47:41;6.18;;;3.30;;
11287;SDS011;5700;50.996;7.044;2023-03-07T14:50:53;6.97;;;3.90;;
11287;SDS011;5700;50.996;7.044;2023-03-07T14:53:55;6.05;;;3.50;;
11287;SDS011;5700;50.996;7.044;2023-03-07T14:56:57;4.95;;;3.40;;
11287;SDS011;5700;50.996;7.044;2023-03-07T15:00:01;7.55;;;4.20;;
11287;SDS011;5700;50.996;7.044;2023-03-07T15:03:06;7.75;;;4.65;;
11287;SDS011;5700;50.996;7.044;2023-03-07T15:06:12;6.55;;;3.95;;
11287;SDS011;5700;50.996;7.044;2023-03-07T15:09:14;8.68;;;4.13;;
11287;SDS011;5700;50.996;7.044;2023-03-07T15:12:17;8.27;;;4.28;;
11287;SDS011;5700;50.996;7.044;2023-03-07T15:15:23;6.50;;;3.60;;
11287;SDS011;5700;50.996;7.044;2023-03-07T15:18:28;6.80;;;3.92;;
11287;SDS011;5700;50.996;7.044;2023-03-07T15:21:34;7.25;;;3.95;;
11287;SDS011;5700;50.996;7.044;2023-03-07T15:24:38;7.07;;;3.75;;
11287;SDS011;5700;50.996;7.044;2023-03-07T15:27:43;6.22;;;3.50;;
11287;SDS011;5700;50.996;7.044;2023-03-07T15:30:45;6.10;;;3.58;;
11287;SDS011;5700;50.996;7.044;2023-03-07T15:33:47;9.18;;;4.68;;
11287;SDS011;5700;50.996;7.044;2023-03-07T15:36:50;6.70;;;4.05;;
11287;SDS011;5700;50.996;7.044;2023-03-07T15:39:53;6.63;;;4.00;;
11287;SDS011;5700;50.996;7.044;2023-03-07T15:42:56;7.35;;;3.92;;
11287;SDS011;5700;50.996;7.044;2023-03-07T15:46:00;10.27;;;4.05;;
11287;SDS011;5700;50.996;7.044;2023-03-07T15:49:03;7.88;;;4.47;;
11287;SDS011;5700;50.996;7.044;2023-03-07T15:52:06;8.52;;;4.00;;
11287;SDS011;5700;50.996;7.044;2023-03-07T15:55:15;11.45;;;5.38;;
11287;SDS011;5700;50.996;7.044;2023-03-07T15:58:17;8.73;;;4.43;;
11287;SDS011;5700;50.996;7.044;2023-03-07T16:01:21;11.18;;;5.50;;
11287;SDS011;5700;50.996;7.044;2023-03-07T16:04:27;11.20;;;5.43;;
11287;SDS011;5700;50.996;7.044;2023-03-07T16:07:33;10.35;;;5.28;;
11287;SDS011;5700;50.996;7.044;2023-03-07T16:10:34;10.77;;;4.93;;
11287;SDS011;5700;50.996;7.044;2023-03-07T16:13:37;8.43;;;4.90;;
11287;SDS011;5700;50.996;7.044;2023-03-07T16:16:41;9.75;;;5.07;;
11287;SDS011;5700;50.996;7.044;2023-03-07T16:19:43;8.45;;;4.25;;
11287;SDS011;5700;50.996;7.044;2023-03-07T16:22:46;9.55;;;5.15;;
11287;SDS011;5700;50.996;7.044;2023-03-07T16:25:47;8.90;;;5.22;;
11287;SDS011;5700;50.996;7.044;2023-03-07T16:28:49;8.05;;;4.60;;
11287;SDS011;5700;50.996;7.044;2023-03-07T16:31:50;8.05;;;4.45;;
11287;SDS011;5700;50.996;7.044;2023-03-07T16:34:53;8.43;;;4.40;;
11287;SDS011;5700;50.996;7.044;2023-03-07T16:37:55;13.25;;;6.03;;
11287;SDS011;5700;50.996;7.044;2023-03-07T16:40:58;11.43;;;6.65;;
11287;SDS011;5700;50.996;7.044;2023-03-07T16:44:02;11.52;;;6.35;;
11287;SDS011;5700;50.996;7.044;2023-03-07T16:47:04;11.18;;;6.07;;
11287;SDS011;5700;50.996;7.044;2023-03-07T16:50:11;13.88;;;7.65;;
11287;SDS011;5700;50.996;7.044;2023-03-07T16:53:15;14.60;;;7.28;;
11287;SDS011;5700;50.996;7.044;2023-03-07T16:56:17;11.82;;;6.68;;
11287;SDS011;5700;50.996;7.044;2023-03-07T16:59:21;14.15;;;6.85;;
11287;SDS011;5700;50.996;7.044;2023-03-07T17:02:24;14.82;;;7.78;;
11287;SDS011;5700;50.996;7.044;2023-03-07T17:05:26;11.98;;;6.65;;
11287;SDS011;5700;50.996;7.044;2023-03-07T17:08:30;12.93;;;6.97;;
11287;SDS011;5700;50.996;7.044;2023-03-07T17:11:32;15.95;;;8.95;;
11287;SDS011;5700;50.996;7.044;2023-03-07T17:14:34;18.25;;;9.30;;
11287;SDS011;5700;50.996;7.044;2023-03-07T17:17:35;14.65;;;8.20;;
11287;SDS011;5700;50.996;7.044;2023-03-07T17:20:37;14.35;;;7.28;;
11287;SDS011;5700;50.996;7.044;2023-03-07T17:23:40;13.48;;;6.75;;
11287;SDS011;5700;50.996;7.044;2023-03-07T17:26:44;14.45;;;7.25;;
11287;SDS011;5700;50.996;7.044;2023-03-07T17:29:47;12.57;;;7.00;;
11287;SDS011;5700;50.996;7.044;2023-03-07T17:32:49;13.40;;;6.70;;
11287;SDS011;5700;50.996;7.044;2023-03-07T17:35:51;14.10;;;7.18;;
11287;SDS011;5700;50.996;7.044;2023-03-07T17:38:55;14.18;;;7.72;;
11287;SDS011;5700;50.996;7.044;2023-03-07T17:41:56;13.18;;;7.43;;
11287;SDS011;5700;50.996;7.044;2023-03-07T17:44:58;15.35;;;8.23;;
11287;SDS011;5700;50.996;7.044;2023-03-07T17:48:00;13.98;;;6.53;;
11287;SDS011;5700;50.996;7.044;2023-03-07T17:51:05;11.32;;;5.18;;
11287;SDS011;5700;50.996;7.044;2023-03-07T17:54:09;11.30;;;5.63;;
11287;SDS011;5700;50.996;7.044;2023-03-07T17:57:10;11.77;;;6.07;;
11287;SDS011;5700;50.996;7.044;2023-03-07T18:00:12;11.38;;;4.95;;
11287;SDS011;5700;50.996;7.044;2023-03-07T18:03:14;10.48;;;5.00;;
11287;SDS011;5700;50.996;7.044;2023-03-07T18:06:15;12.00;;;5.18;;
11287;SDS011;5700;50.996;7.044;2023-03-07T18:09:18;10.90;;;4.85;;
11287;SDS011;5700;50.996;7.044;2023-03-07T18:12:22;11.48;;;5.53;;
11287;SDS011;5700;50.996;7.044;2023-03-07T18:15:23;9.88;;;5.18;;
11287;SDS011;5700;50.996;7.044;2023-03-07T18:18:28;10.95;;;4.22;;
11287;SDS011;5700;50.996;7.044;2023-03-07T18:21:31;10.48;;;4.97;;
11287;SDS011;5700;50.996;7.044;2023-03-07T18:24:34;9.95;;;5.25;;
11287;SDS011;5700;50.996;7.044;2023-03-07T18:27:36;11.20;;;5.45;;
11287;SDS011;5700;50.996;7.044;2023-03-07T18:30:37;16.13;;;6.80;;
11287;SDS011;5700;50.996;7.044;2023-03-07T18:33:39;10.52;;;5.22;;
11287;SDS011;5700;50.996;7.044;2023-03-07T18:36:40;11.65;;;4.90;;
11287;SDS011;5700;50.996;7.044;2023-03-07T18:39:43;8.48;;;4.78;;
11287;SDS011;5700;50.996;7.044;2023-03-07T18:42:45;9.68;;;5.55;;